Time;durP1;ratioP1;P1;durP2;ratioP2;P2;SDS_P1;SDS_P2;PMS_P1;PMS_P2;Temp;Humidity;BMP_temperature;BMP_pressure;BME280_temperature;BME280_humidity;BME280_pressure;Samples;Min_cycle;Max_cycle;Signal;HPM_P1;HPM_P2
2022/07/26 00:00:22;;;;;;;;;;;;;;;23.08;49.24;153458.36;1606077;89;20250;-72
2022/07/26 00:02:49;;;;;;;;;;;;;;;23.04;49.23;153447.91;1610792;89;20191;-73
2022/07/26 00:05:16;;;;;;;;;;;;;;;23.01;49.24;153441.39;1612570;89;20196;-73
2022/07/26 00:07:43;;;;;;;;;;;;;;;23.06;49.09;153453.13;1612679;89;21259;-73
2022/07/26 00:10:10;;;;;;;;;;;;;;;23.05;49.02;153450.52;1613050;89;20498;-73
2022/07/26 00:12:38;;;;;;;;;;;;;;;22.98;49.17;153432.22;1612486;89;20145;-71
2022/07/26 00:15:06;;;;;;;;;;;;;;;22.89;49.24;153411.30;1612810;87;20800;-74
2022/07/26 00:17:33;;;;;;;;;;;;;;;22.80;49.44;153387.72;1616999;87;20204;-73
2022/07/26 00:20:00;;;;;;;;;;;;;;;22.75;49.69;153374.66;1642164;87;21225;-73
2022/07/26 00:22:35;;;;;;;;;;;;;;;22.69;49.81;153360.25;1642150;87;20194;-73
2022/07/26 00:25:02;;;;;;;;;;;;;;;22.68;49.79;153356.34;1641960;87;20191;-72
2022/07/26 00:27:30;;;;;;;;;;;;;;;22.58;49.93;153332.78;1641764;87;20182;-73
2022/07/26 00:29:56;;;;;;;;;;;;;;;22.57;50.02;153328.88;1642247;87;20182;-74
2022/07/26 00:32:23;;;;;;;;;;;;;;;22.52;50.09;153317.09;1642161;87;21315;-73
2022/07/26 00:34:50;;;;;;;;;;;;;;;22.49;50.22;153309.25;1642104;87;20152;-72
2022/07/26 00:37:17;;;;;;;;;;;;;;;22.48;50.23;153306.64;1641991;87;20546;-73
2022/07/26 00:39:44;;;;;;;;;;;;;;;22.47;50.17;153304.03;1642290;87;20091;-73
2022/07/26 00:42:10;;;;;;;;;;;;;;;22.41;50.20;153288.25;1641879;87;20191;-73
2022/07/26 00:44:38;;;;;;;;;;;;;;;22.40;50.24;153285.62;1642169;87;21136;-73
2022/07/26 00:47:05;;;;;;;;;;;;;;;22.37;50.22;153277.78;1641797;87;20175;-73
2022/07/26 00:49:32;;;;;;;;;;;;;;;22.36;50.27;153275.17;1642112;87;20214;-73
2022/07/26 00:51:59;;;;;;;;;;;;;;;22.36;50.27;153275.17;1642039;87;20182;-73
2022/07/26 00:54:26;;;;;;;;;;;;;;;22.38;50.11;153281.73;1641885;87;20211;-73
2022/07/26 00:56:53;;;;;;;;;;;;;;;22.31;50.15;153264.72;1641976;87;21259;-73
2022/07/26 00:59:21;;;;;;;;;;;;;;;22.26;50.19;153251.66;1641934;87;37504;-72
2022/07/26 01:01:47;;;;;;;;;;;;;;;22.17;50.39;153228.09;1640974;87;20148;-72
2022/07/26 01:04:14;;;;;;;;;;;;;;;22.13;50.47;153218.97;1636778;87;20179;-73
2022/07/26 01:06:41;;;;;;;;;;;;;;;22.08;50.54;153205.84;1606018;89;20209;-73
2022/07/26 01:09:09;;;;;;;;;;;;;;;22.01;50.65;153187.56;1606112;89;21247;-73
2022/07/26 01:11:37;;;;;;;;;;;;;;;21.95;50.76;153171.87;1624706;87;20179;-73
2022/07/26 01:14:04;;;;;;;;;;;;;;;21.93;51.01;153167.94;1637392;87;20176;-73
2022/07/26 01:16:31;;;;;;;;;;;;;;;21.99;50.88;153182.33;1637418;87;20167;-73
2022/07/26 01:18:58;;;;;;;;;;;;;;;21.95;50.90;153173.16;1614395;87;20197;-73
2022/07/26 01:21:29;;;;;;;;;;;;;;;21.96;50.99;153174.50;1605640;89;21269;-73
2022/07/26 01:23:56;;;;;;;;;;;;;;;21.96;50.85;153175.78;1606144;87;20110;-73
2022/07/26 01:26:22;;;;;;;;;;;;;;;21.88;50.91;153156.20;1605542;89;20182;-73
2022/07/26 01:28:49;;;;;;;;;;;;;;;21.75;51.22;153123.47;1605638;87;20198;-73
2022/07/26 01:31:15;;;;;;;;;;;;;;;21.66;51.48;153099.95;1605693;89;20449;-73
2022/07/26 01:33:42;;;;;;;;;;;;;;;21.60;51.60;153084.23;1605692;89;21143;-73
2022/07/26 01:36:11;;;;;;;;;;;;;;;21.51;51.87;153060.67;1605764;89;20196;-73
2022/07/26 01:38:39;;;;;;;;;;;;;;;21.47;51.94;153052.83;1605710;87;20186;-73
2022/07/26 01:41:06;;;;;;;;;;;;;;;21.37;52.08;153026.72;1605825;89;20186;-74
2022/07/26 01:43:35;;;;;;;;;;;;;;;21.30;52.29;153008.38;1605609;87;20459;-74
2022/07/26 01:46:02;;;;;;;;;;;;;;;21.23;52.30;152991.42;1605529;87;21168;-74
2022/07/26 01:48:29;;;;;;;;;;;;;;;21.13;52.44;152965.27;1605310;89;20210;-73
2022/07/26 01:50:56;;;;;;;;;;;;;;;21.02;52.66;152937.81;1605697;89;20396;-74
2022/07/26 01:53:23;;;;;;;;;;;;;;;20.95;52.81;152919.53;1605814;89;20929;-74
2022/07/26 01:55:49;;;;;;;;;;;;;;;20.89;52.91;152906.48;1605792;89;20163;-74
2022/07/26 01:58:17;;;;;;;;;;;;;;;20.84;52.99;152892.09;1605771;88;21261;-74
2022/07/26 02:00:44;;;;;;;;;;;;;;;20.72;53.27;152862.00;1605522;88;20214;-74
2022/07/26 02:03:10;;;;;;;;;;;;;;;20.63;53.53;152839.78;1605795;89;20215;-74
2022/07/26 02:05:37;;;;;;;;;;;;;;;20.57;53.65;152825.39;1604517;89;20498;-74
2022/07/26 02:08:04;;;;;;;;;;;;;;;20.52;53.86;152812.34;1603092;87;20474;-74
2022/07/26 02:13:16;;;;;;;;;;;;;;;20.49;54.10;152804.50;1602006;87;20189;-74
2022/07/26 02:15:42;;;;;;;;;;;;;;;20.44;54.20;152791.41;1599080;89;20447;-74
2022/07/26 02:18:09;;;;;;;;;;;;;;;20.41;54.28;152784.91;1605855;87;20991;-73
2022/07/26 02:20:36;;;;;;;;;;;;;;;20.39;54.26;152778.36;1612428;89;20258;-60
2022/07/26 02:23:03;;;;;;;;;;;;;;;20.31;54.46;152760.09;1612515;88;21257;-60
2022/07/26 02:25:29;;;;;;;;;;;;;;;20.30;54.47;152756.14;1612145;89;20519;-61
2022/07/26 02:27:56;;;;;;;;;;;;;;;20.24;54.61;152741.81;1612134;89;20190;-61
2022/07/26 02:30:23;;;;;;;;;;;;;;;20.18;54.64;152726.09;1612673;87;20237;-60
2022/07/26 02:32:49;;;;;;;;;;;;;;;20.10;54.83;152705.22;1613418;87;20201;-60
2022/07/26 02:35:16;;;;;;;;;;;;;;;20.09;55.00;152703.89;1612746;88;21257;-59
2022/07/26 02:37:43;;;;;;;;;;;;;;;20.04;55.06;152692.17;1612860;89;20213;-60
2022/07/26 02:40:10;;;;;;;;;;;;;;;19.94;55.36;152664.75;1613100;87;20213;-60
2022/07/26 02:42:37;;;;;;;;;;;;;;;19.88;55.63;152650.31;1612783;88;20229;-60
2022/07/26 02:45:04;;;;;;;;;;;;;;;19.88;55.83;152650.31;1612915;89;20182;-60
2022/07/26 02:47:31;;;;;;;;;;;;;;;19.92;55.66;152660.81;1612818;88;22005;-60
2022/07/26 02:49:58;;;;;;;;;;;;;;;19.90;55.79;152655.53;1612879;89;20171;-60
2022/07/26 02:52:25;;;;;;;;;;;;;;;19.90;55.92;152656.87;1612794;88;20213;-60
2022/07/26 02:54:52;;;;;;;;;;;;;;;19.95;55.73;152667.36;1612694;89;20207;-61
2022/07/26 02:57:18;;;;;;;;;;;;;;;19.95;55.63;152668.62;1612720;88;20253;-60
2022/07/26 02:59:45;;;;;;;;;;;;;;;20.00;55.52;152681.69;1612672;89;21260;-60
2022/07/26 03:02:12;;;;;;;;;;;;;;;20.00;55.46;152681.69;1614768;87;20213;-60
2022/07/26 03:04:38;;;;;;;;;;;;;;;20.01;55.56;152684.34;1634344;87;20450;-60
2022/07/26 03:07:05;;;;;;;;;;;;;;;20.06;55.76;152694.78;1606507;89;20435;-60
2022/07/26 03:09:31;;;;;;;;;;;;;;;20.11;55.55;152707.83;1606275;89;20482;-59
2022/07/26 03:11:58;;;;;;;;;;;;;;;20.17;55.41;152724.81;1631342;87;22153;-60
2022/07/26 03:14:24;;;;;;;;;;;;;;;20.23;55.20;152739.20;1640175;87;20242;-59
2022/07/26 03:16:51;;;;;;;;;;;;;;;20.25;55.13;152744.42;1640101;87;20182;-59
2022/07/26 03:19:18;;;;;;;;;;;;;;;20.29;55.17;152753.53;1610759;87;20198;-60
2022/07/26 03:21:44;;;;;;;;;;;;;;;20.38;55.23;152775.75;1605996;87;20475;-60
2022/07/26 03:24:11;;;;;;;;;;;;;;;20.47;55.31;152799.28;1606123;87;20680;-60
2022/07/26 03:26:38;;;;;;;;;;;;;;;20.54;55.23;152816.23;1605834;89;20517;-60
2022/07/26 03:29:04;;;;;;;;;;;;;;;20.64;55.14;152842.39;1606470;89;20125;-60
2022/07/26 03:31:31;;;;;;;;;;;;;;;20.70;54.94;152858.06;1605884;89;20677;-60
2022/07/26 03:33:58;;;;;;;;;;;;;;;20.79;54.75;152879.00;1606282;89;20184;-61
2022/07/26 03:36:24;;;;;;;;;;;;;;;20.83;54.64;152890.77;1605993;87;21263;-61
2022/07/26 03:38:51;;;;;;;;;;;;;;;20.89;54.59;152906.48;1605901;89;20431;-60
2022/07/26 03:41:19;;;;;;;;;;;;;;;21.00;54.37;152932.59;1605464;87;20502;-61
2022/07/26 03:43:46;;;;;;;;;;;;;;;21.09;54.29;152954.81;1605980;87;20953;-60
2022/07/26 03:46:13;;;;;;;;;;;;;;;21.16;54.23;152974.42;1606023;89;20195;-60
2022/07/26 03:48:39;;;;;;;;;;;;;;;21.18;54.32;152978.33;1606002;89;20555;-60
2022/07/26 03:51:06;;;;;;;;;;;;;;;21.17;54.69;152975.70;1605926;89;20189;-60
2022/07/26 03:53:33;;;;;;;;;;;;;;;21.22;54.91;152987.48;1606006;89;20157;-60
2022/07/26 03:58:44;;;;;;;;;;;;;;;21.40;54.72;153033.22;1605805;89;20170;-60
2022/07/26 04:01:11;;;;;;;;;;;;;;;21.42;54.91;153039.78;1606094;89;21121;-61
2022/07/26 04:03:38;;;;;;;;;;;;;;;21.49;54.99;153055.45;1609110;87;20194;-61
2022/07/26 04:06:05;;;;;;;;;;;;;;;21.54;55.08;153068.50;1612735;87;20507;-61
2022/07/26 04:08:31;;;;;;;;;;;;;;;21.61;55.25;153086.84;1612185;87;20198;-59
2022/07/26 04:10:58;;;;;;;;;;;;;;;21.66;55.38;153099.95;1622197;87;20148;-61
2022/07/26 04:13:25;;;;;;;;;;;;;;;21.77;55.30;153126.08;1641889;87;21273;-59
2022/07/26 04:15:51;;;;;;;;;;;;;;;21.90;55.27;153160.09;1641660;87;20452;-61
2022/07/26 04:18:18;;;;;;;;;;;;;;;22.13;54.93;153217.63;1628237;87;20242;-61
2022/07/26 04:20:45;;;;;;;;;;;;;;;22.30;54.47;153262.11;1611966;89;20173;-61
2022/07/26 04:23:11;;;;;;;;;;;;;;;22.47;54.01;153304.03;1612368;89;20184;-61
2022/07/26 04:25:39;;;;;;;;;;;;;;;22.66;53.64;153352.41;1612408;89;22731;-60
2022/07/26 04:28:05;;;;;;;;;;;;;;;22.85;53.14;153399.50;1612785;89;20347;-61
2022/07/26 04:30:32;;;;;;;;;;;;;;;23.00;52.69;153438.78;1612266;89;20489;-61
2022/07/26 04:32:59;;;;;;;;;;;;;;;23.12;52.46;153467.53;1612470;89;20447;-61
2022/07/26 04:35:26;;;;;;;;;;;;;;;23.23;52.30;153495.02;1612569;89;20197;-61
2022/07/26 04:37:52;;;;;;;;;;;;;;;23.29;52.26;153510.77;1612482;89;21339;-74
2022/07/26 04:40:20;;;;;;;;;;;;;;;23.36;52.20;153529.11;1612401;89;20450;-73
2022/07/26 04:42:47;;;;;;;;;;;;;;;23.50;52.21;153563.11;1612573;87;20383;-73
2022/07/26 04:45:13;;;;;;;;;;;;;;;23.64;52.01;153599.78;1612498;87;20178;-73
2022/07/26 04:47:41;;;;;;;;;;;;;;;23.75;51.93;153627.27;1612404;89;20218;-73
2022/07/26 04:50:09;;;;;;;;;;;;;;;23.88;51.92;153661.33;1612861;89;21250;-73
2022/07/26 04:52:36;;;;;;;;;;;;;;;24.03;51.65;153699.33;1612543;89;20486;-73
2022/07/26 04:55:05;;;;;;;;;;;;;;;24.14;51.36;153725.50;1612514;89;20218;-73
2022/07/26 04:57:31;;;;;;;;;;;;;;;24.18;51.27;153735.95;1612313;89;20650;-72
2022/07/26 04:59:58;;;;;;;;;;;;;;;24.27;51.33;153759.56;1612517;89;20175;-72
2022/07/26 05:02:25;;;;;;;;;;;;;;;24.45;51.07;153804.09;1612553;89;21262;-72
2022/07/26 05:04:51;;;;;;;;;;;;;;;24.59;50.70;153840.72;1606170;87;20240;-72
2022/07/26 05:07:18;;;;;;;;;;;;;;;24.68;50.47;153863.00;1606129;88;20564;-73
2022/07/26 05:09:45;;;;;;;;;;;;;;;24.79;50.34;153889.27;1605826;89;20185;-72
2022/07/26 05:12:11;;;;;;;;;;;;;;;24.93;50.12;153924.63;1631806;87;20200;-72
2022/07/26 05:14:38;;;;;;;;;;;;;;;25.10;49.97;153969.17;1637103;87;21343;-72
2022/07/26 05:17:05;;;;;;;;;;;;;;;25.24;49.61;154003.22;1637107;87;20476;-73
2022/07/26 05:19:32;;;;;;;;;;;;;;;25.35;49.42;154030.72;1607036;87;20450;-72
2022/07/26 05:21:59;;;;;;;;;;;;;;;25.46;49.37;154060.86;1605459;89;20144;-72
2022/07/26 05:24:25;;;;;;;;;;;;;;;25.62;49.30;154100.23;1605519;89;20211;-72
2022/07/26 05:26:52;;;;;;;;;;;;;;;25.77;49.02;154138.23;1605747;89;21123;-73
2022/07/26 05:29:18;;;;;;;;;;;;;;;25.94;48.73;154181.47;1605379;88;20194;-71
2022/07/26 05:31:45;;;;;;;;;;;;;;;26.07;48.46;154212.95;1605563;88;20210;-72
2022/07/26 05:34:13;;;;;;;;;;;;;;;26.20;48.42;154247.09;1605672;89;20190;-61
2022/07/26 05:36:40;;;;;;;;;;;;;;;26.33;48.08;154278.53;1605007;89;20189;-59
2022/07/26 05:39:06;;;;;;;;;;;;;;;26.50;47.91;154323.12;1608802;87;21336;-64
2022/07/26 05:41:33;;;;;;;;;;;;;;;26.65;47.68;154359.84;1610120;89;20482;-64
2022/07/26 05:44:00;;;;;;;;;;;;;;;26.80;47.32;154397.88;1609790;89;20147;-64
2022/07/26 05:46:27;;;;;;;;;;;;;;;26.95;47.15;154435.94;1610084;89;20210;-64
2022/07/26 05:48:54;;;;;;;;;;;;;;;27.15;46.83;154488.41;1613253;87;20114;-64
2022/07/26 05:51:20;;;;;;;;;;;;;;;27.35;46.71;154538.25;1609547;87;21257;-64
2022/07/26 05:53:47;;;;;;;;;;;;;;;27.53;46.35;154582.91;1606003;88;20200;-61
2022/07/26 05:56:14;;;;;;;;;;;;;;;27.72;45.84;154632.72;1602015;88;20229;-62
2022/07/26 05:58:40;;;;;;;;;;;;;;;27.87;45.49;154670.81;1608097;88;20212;-61
2022/07/26 06:01:07;;;;;;;;;;;;;;;27.98;45.23;154698.36;1607196;88;20181;-60
2022/07/26 06:03:33;;;;;;;;;;;;;;;28.10;45.02;154727.20;1613722;87;21281;-61
2022/07/26 06:06:00;;;;;;;;;;;;;;;28.24;44.63;154764.02;1619222;87;20657;-61
2022/07/26 06:08:27;;;;;;;;;;;;;;;28.33;44.39;154785.00;1623614;87;20163;-61
2022/07/26 06:10:54;;;;;;;;;;;;;;;28.42;44.07;154808.66;1611334;87;20234;-60
2022/07/26 06:13:20;;;;;;;;;;;;;;;28.51;43.93;154832.25;1613298;86;20694;-62
2022/07/26 06:15:47;;;;;;;;;;;;;;;28.58;43.47;154850.61;1615721;87;21247;-60
2022/07/26 06:18:14;;;;;;;;;;;;;;;28.65;43.27;154866.41;1620931;86;20187;-61
2022/07/26 06:20:41;;;;;;;;;;;;;;;28.78;42.98;154900.50;1608561;87;20175;-61
2022/07/26 06:23:08;;;;;;;;;;;;;;;28.89;42.73;154928.13;1624310;87;20475;-61
2022/07/26 06:25:34;;;;;;;;;;;;;;;29.13;42.52;154989.84;1632358;87;20516;-61
2022/07/26 06:28:02;;;;;;;;;;;;;;;29.38;42.13;155051.53;1620234;87;21907;-61
2022/07/26 06:30:29;;;;;;;;;;;;;;;29.58;41.89;155102.83;1617319;87;20192;-62
2022/07/26 06:32:56;;;;;;;;;;;;;;;29.70;41.43;155134.31;1615802;87;20178;-60
2022/07/26 06:35:23;;;;;;;;;;;;;;;29.71;41.25;155136.94;1621576;87;20986;-60
2022/07/26 06:37:49;;;;;;;;;;;;;;;29.72;41.15;155139.56;1615098;87;20210;-60
2022/07/26 06:40:16;;;;;;;;;;;;;;;29.77;41.08;155150.11;1615791;87;22097;-60
2022/07/26 06:42:43;;;;;;;;;;;;;;;29.81;40.70;155161.91;1615687;87;20187;-61
2022/07/26 06:45:10;;;;;;;;;;;;;;;29.86;40.78;155173.73;1616186;87;20208;-61
2022/07/26 06:47:37;;;;;;;;;;;;;;;29.92;40.79;155189.48;1625105;86;20868;-62
2022/07/26 06:50:04;;;;;;;;;;;;;;;29.94;40.48;155193.44;1626945;86;20200;-61
2022/07/26 06:52:35;;;;;;;;;;;;;;;29.95;40.79;155196.06;1621175;87;21775;-62
2022/07/26 06:55:00;;;;;;;;;;;;;;;30.00;41.11;155210.53;1623913;87;20239;-61
2022/07/26 06:57:26;;;;;;;;;;;;;;;30.08;41.16;155228.95;1619821;87;20200;-61
2022/07/26 06:59:53;;;;;;;;;;;;;;;30.16;41.17;155249.95;1607842;87;20455;-61
2022/07/26 07:02:19;;;;;;;;;;;;;;;30.27;40.91;155277.55;1609881;86;20518;-73
2022/07/26 07:04:46;;;;;;;;;;;;;;;30.40;40.57;155310.44;1614338;87;23398;-73
2022/07/26 07:07:12;;;;;;;;;;;;;;;30.50;40.16;155336.69;1601800;88;20789;-72
2022/07/26 07:09:39;;;;;;;;;;;;;;;30.56;39.35;155352.44;1604609;87;20209;-72
2022/07/26 07:12:06;;;;;;;;;;;;;;;30.62;39.12;155365.63;1609645;87;20694;-72
2022/07/26 07:14:33;;;;;;;;;;;;;;;30.67;38.73;155378.80;1612440;87;21061;-72
2022/07/26 07:16:59;;;;;;;;;;;;;;;30.58;39.02;155357.69;1603288;89;21292;-72
2022/07/26 07:19:27;;;;;;;;;;;;;;;30.52;39.37;155340.66;1608709;87;20459;-73
2022/07/26 07:21:55;;;;;;;;;;;;;;;30.45;39.57;155323.56;1604161;87;20212;-73
2022/07/26 07:24:22;;;;;;;;;;;;;;;30.43;39.35;155318.31;1611818;88;20935;-72
2022/07/26 07:26:49;;;;;;;;;;;;;;;30.36;39.87;155299.89;1602469;88;20205;-73
2022/07/26 07:29:19;;;;;;;;;;;;;;;30.34;40.03;155294.63;1602886;89;21263;-72
2022/07/26 07:31:46;;;;;;;;;;;;;;;30.42;39.75;155315.69;1602075;88;20186;-73
2022/07/26 07:34:15;;;;;;;;;;;;;;;30.54;39.41;155347.19;1603554;89;20146;-72
2022/07/26 07:36:42;;;;;;;;;;;;;;;30.63;39.40;155369.58;1608769;88;20454;-73
2022/07/26 07:39:08;;;;;;;;;;;;;;;30.77;39.27;155405.06;1609581;87;20165;-73
2022/07/26 07:41:37;;;;;;;;;;;;;;;30.86;39.15;155428.73;1606345;87;22184;-72
2022/07/26 07:44:04;;;;;;;;;;;;;;;30.89;39.01;155434.00;1611260;87;20159;-73
2022/07/26 07:46:31;;;;;;;;;;;;;;;30.93;38.89;155444.50;1604183;88;20182;-72
2022/07/26 07:48:58;;;;;;;;;;;;;;;31.04;38.90;155473.39;1605444;88;20431;-72
2022/07/26 07:51:26;;;;;;;;;;;;;;;31.12;38.53;155494.44;1603814;89;20374;-73
2022/07/26 07:53:53;;;;;;;;;;;;;;;31.20;39.18;155512.88;1606495;88;21146;-72
2022/07/26 07:56:20;;;;;;;;;;;;;;;31.22;38.85;155518.13;1614322;88;20188;-72
2022/07/26 07:58:46;;;;;;;;;;;;;;;31.24;38.59;155523.39;1603580;88;20749;-73
2022/07/26 08:01:13;;;;;;;;;;;;;;;31.25;38.30;155526.00;1600340;88;20223;-72
2022/07/26 08:03:40;;;;;;;;;;;;;;;31.23;38.28;155522.09;1600208;87;20221;-72
2022/07/26 08:06:08;;;;;;;;;;;;;;;31.15;38.92;155502.33;1601849;87;21171;-72
2022/07/26 08:08:35;;;;;;;;;;;;;;;31.10;39.24;155489.19;1603259;87;20507;-72
2022/07/26 08:11:03;;;;;;;;;;;;;;;31.05;39.56;155476.02;1603343;88;20155;-73
2022/07/26 08:13:30;;;;;;;;;;;;;;;31.07;39.81;155481.31;1602758;88;20226;-73
2022/07/26 08:15:57;;;;;;;;;;;;;;;31.08;39.51;155483.94;1603345;87;20262;-72
2022/07/26 08:18:24;;;;;;;;;;;;;;;31.06;39.61;155478.69;1605678;88;20954;-73
2022/07/26 08:20:51;;;;;;;;;;;;;;;31.03;39.42;155470.75;1605546;86;20185;-72
2022/07/26 08:23:19;;;;;;;;;;;;;;;31.04;40.13;155473.39;1611640;88;20182;-73
2022/07/26 08:25:46;;;;;;;;;;;;;;;31.07;39.14;155479.97;1608783;87;20141;-61
2022/07/26 08:28:15;;;;;;;;;;;;;;;31.03;39.24;155470.75;1605672;85;20189;-61
2022/07/26 08:30:42;;;;;;;;;;;;;;;30.99;39.66;155460.25;1602280;87;21268;-61
2022/07/26 08:33:08;;;;;;;;;;;;;;;30.98;40.32;155457.63;1602307;87;20125;-61
2022/07/26 08:35:36;;;;;;;;;;;;;;;30.96;40.94;155452.38;1602323;88;20318;-61
2022/07/26 08:38:03;;;;;;;;;;;;;;;30.96;41.82;155452.38;1603614;87;20605;-62
2022/07/26 08:40:29;;;;;;;;;;;;;;;30.95;42.41;155451.09;1608252;87;20234;-60
2022/07/26 08:42:56;;;;;;;;;;;;;;;30.93;42.35;155445.78;1604180;87;21258;-61
2022/07/26 08:45:24;;;;;;;;;;;;;;;30.94;42.62;155448.41;1603584;86;20762;-61
2022/07/26 08:47:51;;;;;;;;;;;;;;;30.96;42.52;155452.38;1608854;87;20182;-60
2022/07/26 08:50:18;;;;;;;;;;;;;;;31.02;41.65;155468.13;1603633;88;20213;-61
2022/07/26 08:52:45;;;;;;;;;;;;;;;30.98;41.77;155458.97;1606852;86;20203;-61
2022/07/26 08:55:17;;;;;;;;;;;;;;;30.98;41.74;155458.97;1603451;89;21274;-61
2022/07/26 08:57:44;;;;;;;;;;;;;;;31.00;42.32;155464.22;1587616;89;20670;-64
2022/07/26 09:00:23;;;;;;;;;;;;;;;30.83;43.87;155419.53;1553068;90;20543;-61
2022/07/26 09:02:51;;;;;;;;;;;;;;;30.59;43.95;155360.31;1592336;88;20232;-61
2022/07/26 09:05:19;;;;;;;;;;;;;;;30.44;43.87;155322.22;1593416;89;20202;-61
2022/07/26 09:07:46;;;;;;;;;;;;;;;30.33;43.97;155292.00;1600171;87;21327;-61
2022/07/26 09:10:14;;;;;;;;;;;;;;;30.26;44.44;155276.25;1596158;88;20201;-62
2022/07/26 09:12:40;;;;;;;;;;;;;;;30.23;45.75;155268.38;1595651;87;20150;-61
2022/07/26 09:15:10;;;;;;;;;;;;;;;30.23;46.41;155268.38;1589279;89;20423;-60
2022/07/26 09:17:43;;;;;;;;;;;;;;;30.26;46.65;155274.92;1567261;88;20218;-61
2022/07/26 09:20:16;;;;;;;;;;;;;;;30.12;47.04;155239.45;1559493;90;20569;-60
2022/07/26 09:23:06;;;;;;;;;;;;;;;29.99;46.47;155207.91;1589275;89;20506;-61
2022/07/26 09:25:38;;;;;;;;;;;;;;;29.95;45.79;155197.36;1580124;89;20180;-60
2022/07/26 09:28:23;;;;;;;;;;;;;;;29.84;44.56;155169.83;1592623;88;20216;-72
2022/07/26 09:30:56;;;;;;;;;;;;;;;29.78;44.68;155152.73;1580534;89;20205;-73
2022/07/26 09:33:22;;;;;;;;;;;;;;;29.73;45.14;155142.25;1587106;87;22394;-73
2022/07/26 09:36:05;;;;;;;;;;;;;;;29.70;46.47;155134.31;1594497;89;20213;-73
2022/07/26 09:38:50;;;;;;;;;;;;;;;29.63;47.57;155115.95;1597716;89;20190;-72
2022/07/26 09:41:34;;;;;;;;;;;;;;;29.65;47.54;155121.19;1584638;89;20148;-72
2022/07/26 09:44:03;;;;;;;;;;;;;;;29.66;46.42;155123.81;1594433;89;20150;-72
2022/07/26 09:46:30;;;;;;;;;;;;;;;29.62;46.40;155113.31;1598655;87;21327;-72
2022/07/26 09:48:59;;;;;;;;;;;;;;;29.62;46.45;155113.31;1586941;89;20217;-72
2022/07/26 09:51:38;;;;;;;;;;;;;;;29.65;45.10;155119.91;1553808;92;20504;-72
2022/07/26 09:54:05;;;;;;;;;;;;;;;29.66;45.02;155122.53;1548754;91;20217;-71
2022/07/26 09:56:48;;;;;;;;;;;;;;;29.68;44.33;155129.06;1552225;91;20226;-72
2022/07/26 09:59:18;;;;;;;;;;;;;;;29.71;44.14;155136.94;1550523;91;20481;-72
2022/07/26 10:01:45;;;;;;;;;;;;;;;29.76;43.82;155148.78;1609312;87;20224;-72
2022/07/26 10:04:12;;;;;;;;;;;;;;;29.81;44.59;155160.61;1597543;88;20709;-71
2022/07/26 10:06:40;;;;;;;;;;;;;;;29.84;45.19;155168.48;1574954;89;20229;-72
2022/07/26 10:09:07;;;;;;;;;;;;;;;29.90;44.97;155182.94;1605920;89;20147;-72
2022/07/26 10:11:54;;;;;;;;;;;;;;;29.91;44.59;155186.86;1589538;89;21321;-73
2022/07/26 10:14:40;;;;;;;;;;;;;;;30.01;44.59;155211.81;1577925;91;20181;-72
2022/07/26 10:17:30;;;;;;;;;;;;;;;30.04;43.98;155218.45;1578210;91;20209;-72
2022/07/26 10:20:04;;;;;;;;;;;;;;;29.98;44.12;155203.94;1590040;89;20234;-72
2022/07/26 10:22:33;;;;;;;;;;;;;;;29.96;44.81;155200.03;1578350;89;20194;-71
2022/07/26 10:25:21;;;;;;;;;;;;;;;29.95;44.28;155196.06;1602254;89;21225;-71
2022/07/26 10:27:50;;;;;;;;;;;;;;;29.93;44.70;155192.11;1602896;87;20499;-73
2022/07/26 10:30:21;;;;;;;;;;;;;;;29.88;45.18;155180.33;1602120;89;20186;-72
2022/07/26 10:32:57;;;;;;;;;;;;;;;29.93;44.61;155192.11;1601882;89;20780;-73
2022/07/26 10:35:42;;;;;;;;;;;;;;;30.01;44.96;155211.81;1604062;87;20404;-72
2022/07/26 10:38:10;;;;;;;;;;;;;;;30.12;43.96;155239.45;1608755;87;21147;-72
2022/07/26 10:40:38;;;;;;;;;;;;;;;30.15;43.37;155248.67;1606608;86;20424;-72
2022/07/26 10:43:10;;;;;;;;;;;;;;;30.14;43.67;155246.05;1611031;87;20220;-71
2022/07/26 10:45:37;;;;;;;;;;;;;;;30.09;43.53;155231.58;1611885;87;20182;-71
2022/07/26 10:48:13;;;;;;;;;;;;;;;30.06;43.33;155223.70;1614734;87;20197;-72
2022/07/26 10:50:41;;;;;;;;;;;;;;;30.03;43.60;155215.83;1608871;88;21258;-72
2022/07/26 10:53:10;;;;;;;;;;;;;;;29.99;43.02;155207.91;1609740;87;20210;-72
2022/07/26 10:55:53;;;;;;;;;;;;;;;29.99;42.32;155207.91;1611960;87;20404;-71
2022/07/26 10:58:20;;;;;;;;;;;;;;;30.04;41.56;155218.45;1609815;86;20487;-71
2022/07/26 11:00:59;;;;;;;;;;;;;;;30.09;41.19;155232.91;1608051;87;20185;-72
2022/07/26 11:03:39;;;;;;;;;;;;;;;30.11;41.35;155238.17;1611662;86;21252;-72
2022/07/26 11:06:16;;;;;;;;;;;;;;;30.02;41.57;155214.50;1605516;87;20234;-72
2022/07/26 11:08:46;;;;;;;;;;;;;;;29.96;41.13;155200.03;1607784;87;20442;-71
2022/07/26 11:11:13;;;;;;;;;;;;;;;29.90;41.04;155182.94;1614919;87;21054;-72
2022/07/26 11:13:41;;;;;;;;;;;;;;;29.94;40.39;155193.44;1618742;86;20227;-61
2022/07/26 11:16:09;;;;;;;;;;;;;;;29.95;39.92;155197.36;1611325;87;21252;-62
2022/07/26 11:18:36;;;;;;;;;;;;;;;29.93;39.42;155192.11;1611702;87;20150;-61
2022/07/26 11:21:12;;;;;;;;;;;;;;;29.88;39.47;155178.98;1609302;87;20190;-61
2022/07/26 11:23:42;;;;;;;;;;;;;;;29.85;39.82;155172.44;1608357;88;21842;-62
2022/07/26 11:26:12;;;;;;;;;;;;;;;29.81;39.44;155160.61;1613697;87;20213;-60
2022/07/26 11:28:59;;;;;;;;;;;;;;;29.79;39.90;155155.36;1611713;87;21942;-62
2022/07/26 11:31:37;;;;;;;;;;;;;;;29.80;39.49;155159.28;1609134;87;20723;-62
2022/07/26 11:34:04;;;;;;;;;;;;;;;29.80;39.68;155157.98;1608607;87;20209;-61
2022/07/26 11:36:38;;;;;;;;;;;;;;;29.78;40.48;155152.73;1608677;87;20502;-60
2022/07/26 11:39:12;;;;;;;;;;;;;;;29.76;40.54;155147.50;1607594;87;20368;-61
2022/07/26 11:41:39;;;;;;;;;;;;;;;29.69;40.40;155131.69;1609334;87;21127;-60
2022/07/26 11:44:06;;;;;;;;;;;;;;;29.67;39.44;155125.16;1612326;87;20195;-60
2022/07/26 11:46:38;;;;;;;;;;;;;;;29.67;40.24;155126.44;1612630;87;20580;-61
2022/07/26 11:49:13;;;;;;;;;;;;;;;29.64;40.16;155118.56;1610999;87;20819;-60
2022/07/26 11:51:57;;;;;;;;;;;;;;;29.58;40.76;155104.11;1610021;87;20212;-61
2022/07/26 11:54:25;;;;;;;;;;;;;;;29.53;41.14;155089.70;1612641;85;21926;-60
2022/07/26 11:56:58;;;;;;;;;;;;;;;29.51;40.32;155085.73;1608338;87;20411;-61
2022/07/26 11:59:27;;;;;;;;;;;;;;;29.48;40.60;155076.53;1610746;87;20217;-61
2022/07/26 12:01:54;;;;;;;;;;;;;;;29.42;39.81;155063.41;1608436;87;20161;-60
2022/07/26 12:04:27;;;;;;;;;;;;;;;29.36;39.46;155047.63;1608930;87;20197;-61
2022/07/26 12:06:54;;;;;;;;;;;;;;;29.30;39.82;155031.88;1606117;87;21267;-60
2022/07/26 12:09:42;;;;;;;;;;;;;;;29.22;39.96;155010.84;1608274;87;20269;-61
2022/07/26 12:12:21;;;;;;;;;;;;;;;29.18;39.86;155000.34;1601709;87;20490;-60
2022/07/26 12:15:01;;;;;;;;;;;;;;;29.14;40.61;154991.12;1602071;88;20662;-72
2022/07/26 12:17:28;;;;;;;;;;;;;;;29.13;41.43;154988.50;1605551;87;20198;-72
2022/07/26 12:19:57;;;;;;;;;;;;;;;29.10;42.25;154981.97;1603994;89;21280;-73
2022/07/26 12:22:25;;;;;;;;;;;;;;;29.10;42.04;154981.97;1604369;89;20499;-72
2022/07/26 12:24:56;;;;;;;;;;;;;;;29.14;41.98;154992.47;1599254;89;20215;-72
2022/07/26 12:27:25;;;;;;;;;;;;;;;29.14;40.62;154992.47;1604840;88;20440;-74
2022/07/26 12:29:55;;;;;;;;;;;;;;;29.10;41.81;154981.97;1607212;87;20321;-70
2022/07/26 12:32:35;;;;;;;;;;;;;;;29.08;42.97;154976.72;1605757;87;21169;-72
2022/07/26 12:35:14;;;;;;;;;;;;;;;29.00;43.47;154957.03;1610272;87;20398;-71
2022/07/26 12:37:50;;;;;;;;;;;;;;;28.93;43.39;154937.33;1610381;87;20519;-70
2022/07/26 12:40:28;;;;;;;;;;;;;;;28.87;43.49;154924.22;1602945;87;20174;-70
2022/07/26 12:42:56;;;;;;;;;;;;;;;28.78;42.31;154900.50;1602424;89;20292;-71
2022/07/26 12:45:25;;;;;;;;;;;;;;;28.78;41.79;154900.50;1603162;89;21270;-71
2022/07/26 12:47:52;;;;;;;;;;;;;;;28.79;43.02;154903.17;1604406;89;20585;-70